createdAt,value
2018-12-31T00:01:38.946Z,96605.69
2018-12-31T00:04:08.929Z,96605.34
2018-12-31T00:06:38.819Z,96602.22
2018-12-31T00:09:08.747Z,96605.16
2018-12-31T00:11:38.717Z,96605.91
2018-12-31T00:14:08.665Z,96602.09
2018-12-31T00:16:38.696Z,96605.56
2018-12-31T00:19:08.597Z,96613.55
2018-12-31T00:21:38.519Z,96605.45
2018-12-31T00:24:08.756Z,96600.23
2018-12-31T00:26:38.596Z,96598.41
2018-12-31T00:29:08.658Z,96598.75
2018-12-31T00:31:38.617Z,96598.48
2018-12-31T00:34:08.511Z,96601.84
2018-12-31T00:36:38.461Z,96596.88
2018-12-31T00:39:08.524Z,96604.78
2018-12-31T00:41:38.368Z,96614.32
2018-12-31T00:44:08.202Z,96621.01
2018-12-31T00:46:38.079Z,96619.61
2018-12-31T00:49:07.925Z,96615.42
2018-12-31T00:51:37.826Z,96618.26
2018-12-31T00:54:07.744Z,96622.87
2018-12-31T00:56:37.603Z,96627.30
2018-12-31T00:59:07.514Z,96621.95
2018-12-31T01:01:37.487Z,96621.10
2018-12-31T01:04:07.391Z,96620.27
2018-12-31T01:06:37.358Z,96622.53
2018-12-31T01:09:07.908Z,96620.69
2018-12-31T01:11:37.912Z,96627.46
2018-12-31T01:14:07.792Z,96629.29
2018-12-31T01:16:37.655Z,96631.73
2018-12-31T01:19:07.541Z,96626.27
2018-12-31T01:21:37.465Z,96625.47
2018-12-31T01:24:07.370Z,96625.19
2018-12-31T01:26:37.318Z,96632.95
2018-12-31T01:29:07.160Z,96639.59
2018-12-31T01:31:37.023Z,96624.66
2018-12-31T01:34:06.855Z,96633.56
2018-12-31T01:36:36.799Z,96630.03
2018-12-31T01:39:07.473Z,96632.48
2018-12-31T01:41:37.462Z,96625.46
2018-12-31T01:44:07.413Z,96621.98
2018-12-31T01:46:37.272Z,96628.77
2018-12-31T01:49:07.348Z,96623.73
2018-12-31T01:51:37.383Z,96632.48
2018-12-31T01:54:07.254Z,96627.67
2018-12-31T01:56:37.122Z,96634.00
2018-12-31T01:59:06.995Z,96636.03
2018-12-31T02:01:36.836Z,96634.75
2018-12-31T02:04:06.731Z,96631.17
2018-12-31T02:06:36.626Z,96624.97
2018-12-31T02:09:07.372Z,96624.75
2018-12-31T02:11:37.297Z,96621.75
2018-12-31T02:14:07.343Z,96628.30
2018-12-31T02:16:37.312Z,96623.38
2018-12-31T02:19:07.261Z,96619.88
2018-12-31T02:21:37.199Z,96620.78
2018-12-31T02:24:07.021Z,96621.04
2018-12-31T02:26:36.916Z,96620.91
2018-12-31T02:29:06.743Z,96612.83
2018-12-31T02:31:36.905Z,96609.84
2018-12-31T02:34:06.801Z,96603.73
2018-12-31T02:36:36.769Z,96608.47
2018-12-31T02:39:07.974Z,96609.95
2018-12-31T02:41:37.915Z,96611.69
2018-12-31T02:44:07.772Z,96620.91
2018-12-31T02:46:37.708Z,96605.83
2018-12-31T02:49:07.583Z,96609.80
2018-12-31T02:51:37.537Z,96611.14
2018-12-31T02:54:07.395Z,96614.58
2018-12-31T02:56:37.239Z,96614.42
2018-12-31T02:59:07.196Z,96605.74
2018-12-31T03:01:38.272Z,96603.20
2018-12-31T03:22:17.119Z,96588.47
2018-12-31T03:24:46.973Z,96591.75
2018-12-31T03:27:16.843Z,96583.91
2018-12-31T03:29:46.960Z,96588.41
2018-12-31T03:32:16.983Z,96588.81
2018-12-31T03:34:46.829Z,96586.86
2018-12-31T03:37:16.815Z,96584.84
2018-12-31T03:39:46.832Z,96581.64
2018-12-31T03:42:16.811Z,96578.50
2018-12-31T03:44:46.800Z,96580.15
2018-12-31T03:47:16.683Z,96574.41
2018-12-31T03:49:46.494Z,96586.19
2018-12-31T03:52:16.357Z,96583.50
2018-12-31T03:54:46.321Z,96579.45
2018-12-31T03:57:16.159Z,96581.69
2018-12-31T03:59:46.032Z,96572.51
2018-12-31T04:02:15.927Z,96576.09
2018-12-31T04:04:45.885Z,96570.32
2018-12-31T04:07:15.783Z,96570.44
2018-12-31T04:09:45.729Z,96570.53
2018-12-31T04:12:15.629Z,96572.33
2018-12-31T04:14:45.532Z,96570.59
2018-12-31T04:17:15.494Z,96569.33
2018-12-31T04:19:45.408Z,96559.16
2018-12-31T04:22:15.300Z,96567.56
2018-12-31T04:24:45.129Z,96556.21
2018-12-31T04:27:15.173Z,96551.69
2018-12-31T04:29:44.989Z,96541.30
2018-12-31T04:32:14.948Z,96536.09
2018-12-31T04:34:44.930Z,96539.81
2018-12-31T04:37:14.810Z,96546.06
2018-12-31T04:39:44.661Z,96547.67
2018-12-31T04:42:14.639Z,96548.02
2018-12-31T04:44:44.520Z,96537.02
2018-12-31T04:47:14.427Z,96543.34
2018-12-31T04:49:44.402Z,96551.94
2018-12-31T04:52:14.217Z,96551.81
2018-12-31T04:54:44.087Z,96554.27
2018-12-31T04:57:13.924Z,96553.80
2018-12-31T04:59:43.790Z,96548.29
2018-12-31T05:02:13.629Z,96545.86
2018-12-31T05:04:43.577Z,96536.67
2018-12-31T05:07:13.415Z,96533.37
2018-12-31T05:09:43.481Z,96534.63
2018-12-31T05:12:13.500Z,96538.56
2018-12-31T05:14:43.420Z,96535.61
2018-12-31T05:17:14.433Z,96546.34
2018-12-31T05:19:44.365Z,96553.71
2018-12-31T05:22:14.326Z,96544.86
2018-12-31T05:24:44.157Z,96549.12
2018-12-31T05:27:14.048Z,96533.52
2018-12-31T05:29:43.880Z,96532.95
2018-12-31T05:32:13.833Z,96541.25
2018-12-31T05:34:43.833Z,96556.16
2018-12-31T05:37:13.646Z,96547.95
2018-12-31T05:39:43.593Z,96557.83
2018-12-31T05:42:13.471Z,96558.69
2018-12-31T05:44:43.327Z,96570.89
2018-12-31T05:47:13.663Z,96574.70
2018-12-31T05:49:43.632Z,96571.05
2018-12-31T05:52:13.447Z,96569.30
2018-12-31T05:54:43.313Z,96570.53
2018-12-31T05:57:13.254Z,96578.91
2018-12-31T05:59:43.170Z,96581.45
2018-12-31T06:02:13.050Z,96570.08
2018-12-31T06:04:43.033Z,96568.77
2018-12-31T06:07:13.015Z,96558.78
2018-12-31T06:09:42.919Z,96562.07
2018-12-31T06:12:12.804Z,96560.95
2018-12-31T06:14:42.698Z,96576.89
2018-12-31T06:17:12.614Z,96574.61
2018-12-31T06:19:42.637Z,96577.41
2018-12-31T06:22:12.517Z,96577.63
2018-12-31T06:24:42.416Z,96590.56
2018-12-31T06:27:12.352Z,96592.30
2018-12-31T06:29:42.334Z,96597.14
2018-12-31T06:32:12.167Z,96598.39
2018-12-31T06:34:42.163Z,96596.81
2018-12-31T06:37:12.150Z,96602.29
2018-12-31T06:39:42.028Z,96588.61
2018-12-31T06:42:12.841Z,96586.38
2018-12-31T06:44:42.829Z,96586.73
2018-12-31T06:47:12.825Z,96582.03
2018-12-31T06:49:42.670Z,96567.39
2018-12-31T06:52:12.627Z,96571.11
2018-12-31T06:54:42.480Z,96580.04
2018-12-31T06:57:12.466Z,96595.89
2018-12-31T06:59:42.298Z,96600.17
2018-12-31T07:02:12.260Z,96597.73
2018-12-31T07:04:42.153Z,96591.56
2018-12-31T07:07:12.111Z,96582.56
2018-12-31T07:09:42.002Z,96598.38
2018-12-31T07:12:11.870Z,96611.56
2018-12-31T07:14:41.792Z,96617.52
2018-12-31T07:17:11.893Z,96620.80
2018-12-31T07:19:41.724Z,96617.48
2018-12-31T07:22:11.601Z,96617.63
2018-12-31T07:24:41.482Z,96605.95
2018-12-31T07:27:11.436Z,96598.39
2018-12-31T07:29:41.393Z,96613.64
2018-12-31T07:32:11.227Z,96616.44
2018-12-31T07:34:41.163Z,96622.62
2018-12-31T07:37:11.097Z,96615.05
2018-12-31T07:39:40.972Z,96620.70
2018-12-31T07:42:10.797Z,96627.62
2018-12-31T07:44:40.697Z,96631.20
2018-12-31T07:47:10.897Z,96633.28
2018-12-31T07:49:40.843Z,96630.34
2018-12-31T07:52:10.783Z,96634.05
2018-12-31T07:54:40.742Z,96636.62
2018-12-31T07:57:10.569Z,96631.51
2018-12-31T07:59:40.556Z,96633.75
2018-12-31T08:02:10.754Z,96630.83
2018-12-31T08:04:40.656Z,96628.73
2018-12-31T08:07:39.025Z,96631.47
2018-12-31T08:10:09.069Z,96629.05
2018-12-31T08:12:38.980Z,96628.55
2018-12-31T08:15:09.003Z,96626.73
2018-12-31T08:17:38.935Z,96624.34
2018-12-31T08:20:08.886Z,96635.20
2018-12-31T08:22:38.743Z,96627.56
2018-12-31T08:25:08.741Z,96630.43
2018-12-31T08:27:38.688Z,96618.91
2018-12-31T08:30:08.714Z,96618.56
2018-12-31T08:32:38.610Z,96627.33
2018-12-31T08:35:08.493Z,96631.78
2018-12-31T08:37:38.576Z,96629.88
2018-12-31T08:40:08.557Z,96630.63
2018-12-31T08:42:38.590Z,96625.08
2018-12-31T08:45:08.631Z,96628.32
2018-12-31T08:47:38.661Z,96628.64
2018-12-31T08:50:08.992Z,96631.42
2018-12-31T08:52:38.919Z,96641.72
2018-12-31T08:55:08.946Z,96639.23
2018-12-31T08:57:38.754Z,96634.77
2018-12-31T09:00:09.627Z,96629.70
2018-12-31T09:02:39.585Z,96634.91
2018-12-31T09:05:09.539Z,96637.09
2018-12-31T09:07:39.457Z,96649.51
2018-12-31T09:10:09.864Z,96644.59
2018-12-31T09:12:39.784Z,96640.67
2018-12-31T09:15:09.797Z,96645.65
2018-12-31T09:17:39.724Z,96648.17
2018-12-31T09:20:10.072Z,96646.31
2018-12-31T09:22:39.954Z,96640.89
2018-12-31T09:25:09.946Z,96656.25
2018-12-31T09:27:39.898Z,96653.59
2018-12-31T09:30:09.894Z,96657.11
2018-12-31T09:32:39.773Z,96658.56
2018-12-31T09:35:09.612Z,96656.50
2018-12-31T09:37:40.475Z,96647.45
2018-12-31T09:40:10.493Z,96649.88
2018-12-31T09:42:40.370Z,96648.09
2018-12-31T09:45:10.390Z,96637.15
2018-12-31T09:47:40.346Z,96633.17
2018-12-31T09:50:10.196Z,96631.13
2018-12-31T09:52:40.075Z,96631.33
2018-12-31T09:55:10.030Z,96630.77
2018-12-31T09:57:39.992Z,96631.51
2018-12-31T10:00:10.040Z,96634.66
2018-12-31T10:02:39.932Z,96631.95
2018-12-31T10:05:09.873Z,96632.81
2018-12-31T10:07:39.698Z,96631.88
2018-12-31T10:10:09.661Z,96617.58
2018-12-31T10:12:39.558Z,96623.95
2018-12-31T10:15:09.674Z,96614.00
2018-12-31T10:17:39.587Z,96615.25
2018-12-31T10:20:09.527Z,96619.75
2018-12-31T10:22:39.396Z,96616.97
2018-12-31T10:25:09.398Z,96621.12
2018-12-31T10:27:39.559Z,96618.60
2018-12-31T10:30:09.575Z,96624.73
2018-12-31T10:32:39.564Z,96621.41
2018-12-31T10:35:09.553Z,96614.11
2018-12-31T10:37:40.648Z,96611.78
2018-12-31T10:40:10.588Z,96611.23
2018-12-31T10:42:40.457Z,96605.08
2018-12-31T10:45:11.339Z,96615.23
2018-12-31T10:47:41.231Z,96615.48
2018-12-31T10:50:11.127Z,96620.76
2018-12-31T10:52:41.128Z,96620.24
2018-12-31T10:55:11.073Z,96623.81
2018-12-31T10:57:40.932Z,96623.74
2018-12-31T11:00:10.832Z,96614.42
2018-12-31T11:02:40.875Z,96607.14
2018-12-31T11:05:10.783Z,96605.38
2018-12-31T11:07:40.642Z,96613.98
2018-12-31T11:10:10.597Z,96610.39
2018-12-31T11:12:40.443Z,96603.91
2018-12-31T11:15:10.310Z,96608.07
2018-12-31T11:17:40.218Z,96602.39
2018-12-31T11:20:10.306Z,96606.03
2018-12-31T11:22:41.127Z,96601.09
2018-12-31T11:25:11.081Z,96599.08
2018-12-31T11:27:40.914Z,96598.53
2018-12-31T11:30:10.936Z,96593.87
2018-12-31T11:32:40.854Z,96598.20
2018-12-31T11:35:10.755Z,96588.19
2018-12-31T11:37:40.617Z,96595.61
2018-12-31T11:40:10.460Z,96586.58
2018-12-31T11:42:40.490Z,96575.85
2018-12-31T11:45:10.477Z,96574.41
2018-12-31T11:47:40.471Z,96564.77
2018-12-31T11:50:10.375Z,96569.02
2018-12-31T11:52:40.253Z,96560.55
2018-12-31T11:55:10.193Z,96556.66
2018-12-31T11:57:41.722Z,96560.12
2018-12-31T12:00:11.688Z,96550.36
2018-12-31T12:02:41.616Z,96546.98
2018-12-31T12:05:11.651Z,96547.52
2018-12-31T12:07:41.496Z,96545.75
2018-12-31T12:10:11.527Z,96551.84
2018-12-31T12:12:41.373Z,96529.66
2018-12-31T12:15:11.409Z,96538.58
2018-12-31T12:17:41.250Z,96539.48
2018-12-31T12:20:11.500Z,96530.95
2018-12-31T12:22:41.361Z,96543.71
2018-12-31T12:25:11.377Z,96545.91
2018-12-31T12:27:41.220Z,96543.33
2018-12-31T12:30:11.110Z,96548.30
2018-12-31T12:32:41.336Z,96547.45
2018-12-31T12:35:11.367Z,96548.08
2018-12-31T12:37:48.290Z,96550.20
2018-12-31T12:40:13.002Z,96554.27
2018-12-31T12:42:43.914Z,96550.73
2018-12-31T12:45:13.958Z,96551.84
2018-12-31T12:47:43.909Z,96547.96
2018-12-31T12:50:13.765Z,96546.56
2018-12-31T12:52:43.894Z,96538.03
2018-12-31T12:55:14.380Z,96536.11
2018-12-31T12:57:44.355Z,96534.23
2018-12-31T13:00:14.327Z,96534.08
2018-12-31T13:02:44.291Z,96534.37
2018-12-31T13:05:14.152Z,96542.84
2018-12-31T13:07:44.093Z,96542.69
2018-12-31T13:10:14.016Z,96543.76
2018-12-31T13:12:43.847Z,96541.48
2018-12-31T13:15:14.161Z,96543.92
2018-12-31T13:17:44.081Z,96552.73
2018-12-31T13:20:13.948Z,96549.39
2018-12-31T13:22:43.792Z,96540.60
2018-12-31T13:25:13.822Z,96538.64
2018-12-31T13:27:43.736Z,96536.81
2018-12-31T13:30:13.965Z,96545.15
2018-12-31T13:32:43.879Z,96537.98
2018-12-31T13:35:13.886Z,96544.16
2018-12-31T13:37:43.828Z,96546.53
2018-12-31T13:40:13.747Z,96546.23
2018-12-31T13:42:43.664Z,96553.95
2018-12-31T13:45:13.517Z,96557.13
2018-12-31T13:47:43.543Z,96560.42
2018-12-31T13:50:13.418Z,96556.02
2018-12-31T13:52:43.318Z,96558.87
2018-12-31T13:55:13.301Z,96550.72
2018-12-31T13:57:43.289Z,96545.06
2018-12-31T14:00:13.316Z,96551.44
2018-12-31T14:02:43.192Z,96552.45
2018-12-31T14:05:13.512Z,96557.26
2018-12-31T14:07:43.412Z,96561.16
2018-12-31T14:10:13.327Z,96562.79
2018-12-31T14:12:43.316Z,96559.77
2018-12-31T14:15:13.330Z,96561.13
2018-12-31T14:17:43.227Z,96555.48
2018-12-31T14:20:13.191Z,96558.44
2018-12-31T14:22:43.033Z,96558.56
2018-12-31T14:25:13.078Z,96559.84
2018-12-31T14:27:43.329Z,96567.08
2018-12-31T14:30:13.365Z,96574.52
2018-12-31T14:32:43.339Z,96580.77
2018-12-31T14:35:13.225Z,96583.36
2018-12-31T14:37:43.236Z,96587.94
2018-12-31T14:40:13.212Z,96593.02
2018-12-31T14:42:43.070Z,96589.47
2018-12-31T14:45:13.063Z,96586.39
2018-12-31T14:47:43.070Z,96590.36
2018-12-31T14:50:13.062Z,96589.67
2018-12-31T14:52:43.010Z,96595.17
2018-12-31T14:55:12.925Z,96594.84
2018-12-31T14:57:42.811Z,96595.44
2018-12-31T15:00:13.608Z,96593.81
2018-12-31T15:02:43.849Z,96589.56
2018-12-31T15:05:13.839Z,96584.84
2018-12-31T15:07:43.812Z,96586.94
2018-12-31T15:10:13.768Z,96601.07
2018-12-31T15:12:43.661Z,96589.66
2018-12-31T15:15:13.601Z,96582.70
2018-12-31T15:17:44.560Z,96595.94
2018-12-31T15:20:14.687Z,96593.70
2018-12-31T15:22:44.684Z,96597.10
2018-12-31T15:25:14.834Z,96594.81
2018-12-31T15:27:44.748Z,96604.88
2018-12-31T15:30:14.778Z,96599.86
2018-12-31T15:32:44.612Z,96603.66
2018-12-31T15:35:14.567Z,96603.83
2018-12-31T15:37:44.753Z,96611.27
2018-12-31T15:40:14.621Z,96609.63
2018-12-31T15:42:44.442Z,96611.53
2018-12-31T15:45:14.371Z,96615.28
2018-12-31T15:47:45.434Z,96619.02
2018-12-31T15:50:15.600Z,96627.64
2018-12-31T15:52:45.526Z,96618.69
2018-12-31T15:55:15.487Z,96621.66
2018-12-31T15:57:45.361Z,96619.11
2018-12-31T16:00:15.199Z,96614.16
2018-12-31T16:02:45.352Z,96616.03
2018-12-31T16:05:15.260Z,96616.37
2018-12-31T16:07:46.097Z,96622.73
2018-12-31T16:10:16.199Z,96618.19
2018-12-31T16:12:46.459Z,96629.93
2018-12-31T16:15:16.378Z,96637.39
2018-12-31T16:17:46.251Z,96633.05
2018-12-31T16:20:16.200Z,96637.22
2018-12-31T16:22:46.132Z,96635.13
2018-12-31T16:25:16.073Z,96645.45
2018-12-31T16:27:45.967Z,96637.47
2018-12-31T16:30:16.930Z,96643.06
2018-12-31T16:32:46.839Z,96636.80
2018-12-31T16:35:16.790Z,96646.05
2018-12-31T16:37:46.616Z,96640.23
2018-12-31T16:40:16.589Z,96648.70
2018-12-31T16:42:46.447Z,96645.97
2018-12-31T16:45:19.432Z,96642.98
2018-12-31T16:47:49.978Z,96637.76
2018-12-31T16:50:19.978Z,96644.94
2018-12-31T16:52:49.875Z,96633.73
2018-12-31T16:55:19.789Z,96643.84
2018-12-31T16:57:49.805Z,96634.20
2018-12-31T17:00:19.742Z,96638.36
2018-12-31T17:02:52.700Z,96643.72
2018-12-31T17:05:22.562Z,96640.70
2018-12-31T17:07:52.563Z,96632.37
2018-12-31T17:10:22.536Z,96631.31
2018-12-31T17:12:52.541Z,96634.63
2018-12-31T17:15:22.470Z,96629.10
2018-12-31T17:17:52.375Z,96633.52
2018-12-31T17:20:22.228Z,96644.74
2018-12-31T17:22:52.597Z,96649.17
2018-12-31T17:25:22.539Z,96652.37
2018-12-31T17:27:52.498Z,96658.73
2018-12-31T17:30:22.447Z,96666.39
2018-12-31T17:32:52.383Z,96659.97
2018-12-31T17:35:22.258Z,96663.26
2018-12-31T17:37:52.123Z,96674.79
2018-12-31T17:40:22.070Z,96671.87
2018-12-31T17:42:51.918Z,96671.17
2018-12-31T17:45:23.211Z,96665.20
2018-12-31T17:47:53.497Z,96656.88
2018-12-31T17:50:23.447Z,96665.09
2018-12-31T17:52:53.355Z,96656.41
2018-12-31T17:55:23.221Z,96653.91
2018-12-31T17:57:53.484Z,96654.06
2018-12-31T18:00:23.472Z,96655.52
2018-12-31T18:02:53.433Z,96662.48
2018-12-31T18:05:23.358Z,96650.37
2018-12-31T18:07:53.248Z,96655.77
2018-12-31T18:10:23.410Z,96657.78
2018-12-31T18:12:53.359Z,96661.91
2018-12-31T18:15:23.364Z,96665.09
2018-12-31T18:17:53.243Z,96665.71
2018-12-31T18:20:23.109Z,96660.50
2018-12-31T18:22:52.974Z,96657.79
2018-12-31T18:25:22.813Z,96655.77
2018-12-31T18:27:52.701Z,96656.57
2018-12-31T18:30:22.630Z,96650.78
2018-12-31T18:32:52.522Z,96657.02
2018-12-31T18:35:22.379Z,96655.07
2018-12-31T18:37:52.310Z,96656.63
2018-12-31T18:40:22.480Z,96665.34
2018-12-31T18:42:52.479Z,96671.94
2018-12-31T18:45:22.800Z,96669.14
2018-12-31T18:47:52.692Z,96663.01
2018-12-31T18:50:22.560Z,96662.67
2018-12-31T18:52:53.464Z,96669.89
2018-12-31T18:55:23.425Z,96670.06
2018-12-31T18:57:54.631Z,96682.98
2018-12-31T19:00:24.504Z,96683.98
2018-12-31T19:02:54.475Z,96680.51
2018-12-31T19:05:28.363Z,96684.59
2018-12-31T19:07:58.624Z,96686.48
2018-12-31T19:10:28.546Z,96686.83
2018-12-31T19:12:58.397Z,96687.89
2018-12-31T19:15:28.359Z,96684.20
2018-12-31T19:17:58.183Z,96681.47
2018-12-31T19:20:29.498Z,96673.27
2018-12-31T19:23:00.520Z,96681.98
2018-12-31T19:25:31.602Z,96685.03
2018-12-31T19:28:02.593Z,96687.97
2018-12-31T19:30:33.741Z,96691.26
2018-12-31T19:33:04.805Z,96699.46
2018-12-31T19:35:35.549Z,96694.60
2018-12-31T19:38:06.438Z,96697.28
2018-12-31T19:40:37.608Z,96692.06
2018-12-31T19:43:08.864Z,96686.75
2018-12-31T19:45:39.701Z,96692.80
2018-12-31T19:48:11.800Z,96691.48
2018-12-31T19:50:42.838Z,96690.02
2018-12-31T19:53:13.790Z,96692.45
2018-12-31T19:55:44.795Z,96683.81
2018-12-31T19:58:16.849Z,96689.09
2018-12-31T20:00:47.905Z,96683.84
2018-12-31T20:03:18.874Z,96680.82
2018-12-31T20:05:50.076Z,96672.06
2018-12-31T20:08:20.940Z,96666.70
2018-12-31T20:10:52.067Z,96663.08
2018-12-31T20:13:22.599Z,96665.75
2018-12-31T20:15:53.568Z,96659.44
2018-12-31T20:18:24.594Z,96658.09
2018-12-31T20:20:55.582Z,96660.30
2018-12-31T20:23:25.473Z,96659.28
2018-12-31T20:25:56.224Z,96660.02
2018-12-31T20:28:27.472Z,96663.18
2018-12-31T20:30:58.479Z,96667.11
2018-12-31T20:33:29.182Z,96659.81
2018-12-31T20:35:59.154Z,96660.86
2018-12-31T20:38:28.987Z,96662.45
2018-12-31T20:40:59.206Z,96664.74
2018-12-31T20:43:29.254Z,96655.48
2018-12-31T20:45:59.106Z,96652.19
2018-12-31T20:48:29.186Z,96662.56
2018-12-31T20:50:59.027Z,96662.52
2018-12-31T20:53:29.446Z,96665.11
2018-12-31T20:55:59.292Z,96659.68
2018-12-31T20:58:29.189Z,96659.34
2018-12-31T21:00:59.042Z,96664.05
2018-12-31T21:03:28.930Z,96670.25
2018-12-31T21:05:59.129Z,96671.14
2018-12-31T21:08:29.257Z,96676.70
2018-12-31T21:10:59.187Z,96671.14
2018-12-31T21:13:29.109Z,96672.00
2018-12-31T21:15:58.990Z,96662.43
2018-12-31T21:18:29.184Z,96654.48
2018-12-31T21:20:59.208Z,96655.63
2018-12-31T21:23:29.224Z,96656.10
2018-12-31T21:25:59.118Z,96661.88
2018-12-31T21:28:29.126Z,96664.70
2018-12-31T21:30:59.014Z,96667.77
2018-12-31T21:33:29.026Z,96672.47
2018-12-31T21:35:58.935Z,96672.80
2018-12-31T21:38:28.907Z,96668.02
2018-12-31T21:40:58.744Z,96668.32
2018-12-31T21:43:28.625Z,96662.14
2018-12-31T21:45:58.612Z,96662.33
2018-12-31T21:48:28.515Z,96658.77
2018-12-31T21:50:58.481Z,96659.72
2018-12-31T21:53:28.419Z,96661.11
2018-12-31T21:55:58.360Z,96662.17
2018-12-31T21:58:28.283Z,96656.34
2018-12-31T22:00:58.184Z,96653.16
2018-12-31T22:03:28.171Z,96652.74
2018-12-31T22:05:59.218Z,96651.48
2018-12-31T22:08:29.202Z,96645.30
2018-12-31T22:10:59.196Z,96643.62
2018-12-31T22:13:29.070Z,96635.23
2018-12-31T22:15:58.963Z,96634.48
2018-12-31T22:18:28.909Z,96642.73
2018-12-31T22:20:58.899Z,96639.42
2018-12-31T22:23:28.774Z,96633.95
2018-12-31T22:25:58.799Z,96634.08
2018-12-31T22:28:28.681Z,96630.12
2018-12-31T22:30:58.962Z,96624.09
2018-12-31T22:33:28.900Z,96620.30
2018-12-31T22:35:58.847Z,96629.39
2018-12-31T22:38:28.831Z,96622.20
2018-12-31T22:40:58.800Z,96616.50
2018-12-31T22:43:29.083Z,96607.84
2018-12-31T22:45:59.123Z,96615.09
2018-12-31T22:48:29.106Z,96612.36
2018-12-31T22:50:59.134Z,96607.67
2018-12-31T22:53:29.157Z,96614.78
2018-12-31T22:55:59.034Z,96611.02
2018-12-31T22:58:29.041Z,96613.16
2018-12-31T23:00:59.550Z,96619.06
2018-12-31T23:03:29.633Z,96614.83
2018-12-31T23:06:00.072Z,96614.02
2018-12-31T23:08:31.137Z,96601.83
2018-12-31T23:11:01.297Z,96599.81
2018-12-31T23:13:35.331Z,96598.78
2018-12-31T23:16:05.376Z,96608.34
2018-12-31T23:18:35.291Z,96615.45
2018-12-31T23:21:05.343Z,96613.62
2018-12-31T23:23:35.241Z,96610.29
2018-12-31T23:26:05.312Z,96611.35
2018-12-31T23:28:35.232Z,96608.13
2018-12-31T23:31:05.209Z,96612.89
2018-12-31T23:33:35.065Z,96605.11
2018-12-31T23:36:04.981Z,96598.41
2018-12-31T23:38:34.820Z,96593.72
2018-12-31T23:41:04.833Z,96596.00
2018-12-31T23:43:34.723Z,96589.45
2018-12-31T23:46:04.606Z,96595.63
2018-12-31T23:48:37.485Z,96593.89
2018-12-31T23:51:07.612Z,96600.53
2018-12-31T23:53:37.446Z,96605.30
2018-12-31T23:56:07.427Z,96602.81
2018-12-31T23:58:37.347Z,96606.64
